﻿<?xml version="1.0" encoding="utf-8"?><gpx creator="Garmin Desktop App" version="1.1" xsi:schemaLocation="http://www.topografix.com/GPX/1/1 http://www.topografix.com/GPX/1/1/gpx.xsd http://www.garmin.com/xmlschemas/WaypointExtension/v1 http://www8.garmin.com/xmlschemas/WaypointExtensionv1.xsd http://www.garmin.com/xmlschemas/TrackPointExtension/v1 http://www.garmin.com/xmlschemas/TrackPointExtensionv1.xsd http://www.garmin.com/xmlschemas/GpxExtensions/v3 http://www8.garmin.com/xmlschemas/GpxExtensionsv3.xsd http://www.garmin.com/xmlschemas/ActivityExtension/v1 http://www8.garmin.com/xmlschemas/ActivityExtensionv1.xsd http://www.garmin.com/xmlschemas/AdventuresExtensions/v1 http://www8.garmin.com/xmlschemas/AdventuresExtensionv1.xsd http://www.garmin.com/xmlschemas/PressureExtension/v1 http://www.garmin.com/xmlschemas/PressureExtensionv1.xsd http://www.garmin.com/xmlschemas/TripExtensions/v1 http://www.garmin.com/xmlschemas/TripExtensionsv1.xsd http://www.garmin.com/xmlschemas/TripMetaDataExtensions/v1 http://www.garmin.com/xmlschemas/TripMetaDataExtensionsv1.xsd http://www.garmin.com/xmlschemas/ViaPointTransportationModeExtensions/v1 http://www.garmin.com/xmlschemas/ViaPointTransportationModeExtensionsv1.xsd http://www.garmin.com/xmlschemas/CreationTimeExtension/v1 http://www.garmin.com/xmlschemas/CreationTimeExtensionsv1.xsd http://www.garmin.com/xmlschemas/AccelerationExtension/v1 http://www.garmin.com/xmlschemas/AccelerationExtensionv1.xsd http://www.garmin.com/xmlschemas/PowerExtension/v1 http://www.garmin.com/xmlschemas/PowerExtensionv1.xsd http://www.garmin.com/xmlschemas/VideoExtension/v1 http://www.garmin.com/xmlschemas/VideoExtensionv1.xsd" xmlns="http://www.topografix.com/GPX/1/1" xmlns:xsi="http://www.w3.org/2001/XMLSchema-instance" xmlns:wptx1="http://www.garmin.com/xmlschemas/WaypointExtension/v1" xmlns:gpxtrx="http://www.garmin.com/xmlschemas/GpxExtensions/v3" xmlns:gpxtpx="http://www.garmin.com/xmlschemas/TrackPointExtension/v1" xmlns:gpxx="http://www.garmin.com/xmlschemas/GpxExtensions/v3" xmlns:trp="http://www.garmin.com/xmlschemas/TripExtensions/v1" xmlns:adv="http://www.garmin.com/xmlschemas/AdventuresExtensions/v1" xmlns:prs="http://www.garmin.com/xmlschemas/PressureExtension/v1" xmlns:tmd="http://www.garmin.com/xmlschemas/TripMetaDataExtensions/v1" xmlns:vptm="http://www.garmin.com/xmlschemas/ViaPointTransportationModeExtensions/v1" xmlns:ctx="http://www.garmin.com/xmlschemas/CreationTimeExtension/v1" xmlns:gpxacc="http://www.garmin.com/xmlschemas/AccelerationExtension/v1" xmlns:gpxpx="http://www.garmin.com/xmlschemas/PowerExtension/v1" xmlns:vidx1="http://www.garmin.com/xmlschemas/VideoExtension/v1">

  <metadata>
    <link href="http://www.garmin.com">
      <text>Garmin International</text>
    </link>
    <time>2024-04-14T18:47:19Z</time>
    <bounds maxlat="46.05573071166873" maxlon="8.842931902036071" minlat="46.040023108944297" minlon="8.810772551223636" />
  </metadata>

  <trk>
    <name>monte lema2024-04-14</name>
    <extensions>
      <gpxx:TrackExtension>
        <gpxx:DisplayColor>Yellow</gpxx:DisplayColor>
      </gpxx:TrackExtension>
      <gpxtrkx:TrackStatsExtension xmlns:gpxtrkx="http://www.garmin.com/xmlschemas/TrackStatsExtension/v1">
        <gpxtrkx:Distance>12261</gpxtrkx:Distance>
        <gpxtrkx:TotalElapsedTime>24056</gpxtrkx:TotalElapsedTime>
        <gpxtrkx:MovingTime>15225</gpxtrkx:MovingTime>
        <gpxtrkx:StoppedTime>8821</gpxtrkx:StoppedTime>
        <gpxtrkx:MovingSpeed>0.805</gpxtrkx:MovingSpeed>
        <gpxtrkx:MaxSpeed>2.679</gpxtrkx:MaxSpeed>
        <gpxtrkx:MaxElevation>1626.4</gpxtrkx:MaxElevation>
        <gpxtrkx:MinElevation>1172.773</gpxtrkx:MinElevation>
        <gpxtrkx:Ascent>718</gpxtrkx:Ascent>
        <gpxtrkx:Descent>698.12</gpxtrkx:Descent>
        <gpxtrkx:AvgAscentRate>0.045</gpxtrkx:AvgAscentRate>
        <gpxtrkx:MaxAscentRate>0.243</gpxtrkx:MaxAscentRate>
        <gpxtrkx:AvgDescentRate>0.063</gpxtrkx:AvgDescentRate>
        <gpxtrkx:MaxDescentRate>-0.418</gpxtrkx:MaxDescentRate>
      </gpxtrkx:TrackStatsExtension>
    </extensions>
    <trkseg>
      <trkpt lat="46.042685285210609" lon="8.811346208676696">
        <ele>1239.51</ele>
        <time>2024-04-14T06:57:40Z</time>
      </trkpt>
      <trkpt lat="46.042839176952839" lon="8.811188293620944">
        <ele>1177.0999999999999</ele>
        <time>2024-04-14T07:05:09Z</time>
      </trkpt>
      <trkpt lat="46.043119467794895" lon="8.810772551223636">
        <ele>1179.5</ele>
        <time>2024-04-14T07:05:57Z</time>
      </trkpt>
      <trkpt lat="46.043376205489039" lon="8.810893250629306">
        <ele>1179.28</ele>
        <time>2024-04-14T07:07:02Z</time>
      </trkpt>
      <trkpt lat="46.043163724243641" lon="8.810968184843659">
        <ele>1177.9100000000001</ele>
        <time>2024-04-14T07:09:21Z</time>
      </trkpt>
      <trkpt lat="46.043330188840628" lon="8.811023673042655">
        <ele>1180.53</ele>
        <time>2024-04-14T07:12:38Z</time>
      </trkpt>
      <trkpt lat="46.043266989290714" lon="8.8114392478019">
        <ele>1187.1600000000001</ele>
        <time>2024-04-14T07:13:49Z</time>
      </trkpt>
      <trkpt lat="46.043477207422256" lon="8.811921291053295">
        <ele>1195.6300000000001</ele>
        <time>2024-04-14T07:15:33Z</time>
      </trkpt>
      <trkpt lat="46.043423479422927" lon="8.8123285677284">
        <ele>1203.05</ele>
        <time>2024-04-14T07:17:36Z</time>
      </trkpt>
      <trkpt lat="46.043130699545145" lon="8.813012363389134">
        <ele>1214.3299999999999</ele>
        <time>2024-04-14T07:18:59Z</time>
      </trkpt>
      <trkpt lat="46.042683776468039" lon="8.813610076904297">
        <ele>1226.73</ele>
        <time>2024-04-14T07:20:34Z</time>
      </trkpt>
      <trkpt lat="46.0423369333148" lon="8.813804369419813">
        <ele>1233.3599999999999</ele>
        <time>2024-04-14T07:23:04Z</time>
      </trkpt>
      <trkpt lat="46.042129062116146" lon="8.81444969214499">
        <ele>1243.5999999999999</ele>
        <time>2024-04-14T07:24:47Z</time>
      </trkpt>
      <trkpt lat="46.041873078793287" lon="8.815029133111239">
        <ele>1252.9300000000001</ele>
        <time>2024-04-14T07:25:59Z</time>
      </trkpt>
      <trkpt lat="46.041660513728857" lon="8.815631540492177">
        <ele>1262.23</ele>
        <time>2024-04-14T07:27:17Z</time>
      </trkpt>
      <trkpt lat="46.041546268388629" lon="8.816288514062762">
        <ele>1266.1199999999999</ele>
        <time>2024-04-14T07:28:15Z</time>
      </trkpt>
      <trkpt lat="46.041144859045744" lon="8.81687231361866">
        <ele>1274.2</ele>
        <time>2024-04-14T07:29:39Z</time>
      </trkpt>
      <trkpt lat="46.040866244584322" lon="8.817446054890752">
        <ele>1283.5</ele>
        <time>2024-04-14T07:31:01Z</time>
      </trkpt>
      <trkpt lat="46.040640184655786" lon="8.818122809752822">
        <ele>1295.1800000000001</ele>
        <time>2024-04-14T07:32:33Z</time>
      </trkpt>
      <trkpt lat="46.040585953742266" lon="8.818889502435923">
        <ele>1304.79</ele>
        <time>2024-04-14T07:33:55Z</time>
      </trkpt>
      <trkpt lat="46.040408341214061" lon="8.819531388580799">
        <ele>1314.1199999999999</ele>
        <time>2024-04-14T07:35:11Z</time>
      </trkpt>
      <trkpt lat="46.040369533002377" lon="8.820209819823504">
        <ele>1321.8299999999999</ele>
        <time>2024-04-14T07:36:21Z</time>
      </trkpt>
      <trkpt lat="46.040023108944297" lon="8.820737879723311">
        <ele>1328.8599999999999</ele>
        <time>2024-04-14T07:38:03Z</time>
      </trkpt>
      <trkpt lat="46.040422758087516" lon="8.820509808138013">
        <ele>1340.01</ele>
        <time>2024-04-14T07:46:20Z</time>
      </trkpt>
      <trkpt lat="46.040716208517551" lon="8.819984262809157">
        <ele>1347.6199999999999</ele>
        <time>2024-04-14T07:47:24Z</time>
      </trkpt>
      <trkpt lat="46.041069589555264" lon="8.819505069404841">
        <ele>1354.3199999999999</ele>
        <time>2024-04-14T07:48:23Z</time>
      </trkpt>
      <trkpt lat="46.041377289220691" lon="8.818999640643597">
        <ele>1358.1700000000001</ele>
        <time>2024-04-14T07:49:10Z</time>
      </trkpt>
      <trkpt lat="46.041736369952559" lon="8.818584904074669">
        <ele>1366.3499999999999</ele>
        <time>2024-04-14T07:50:14Z</time>
      </trkpt>
      <trkpt lat="46.04223039932549" lon="8.818400418385863">
        <ele>1376.8800000000001</ele>
        <time>2024-04-14T07:51:59Z</time>
      </trkpt>
      <trkpt lat="46.042705569416285" lon="8.818755391985178">
        <ele>1391.3</ele>
        <time>2024-04-14T07:53:26Z</time>
      </trkpt>
      <trkpt lat="46.042691403999925" lon="8.819403648376465">
        <ele>1407.1500000000001</ele>
        <time>2024-04-14T07:54:56Z</time>
      </trkpt>
      <trkpt lat="46.042394349351525" lon="8.819983508437872">
        <ele>1421.3299999999999</ele>
        <time>2024-04-14T07:56:27Z</time>
      </trkpt>
      <trkpt lat="46.042146496474743" lon="8.820429174229503">
        <ele>1428.6700000000001</ele>
        <time>2024-04-14T07:59:19Z</time>
      </trkpt>
      <trkpt lat="46.042002663016319" lon="8.821063935756683">
        <ele>1435.4200000000001</ele>
        <time>2024-04-14T08:00:21Z</time>
      </trkpt>
      <trkpt lat="46.041847933083773" lon="8.821756700053811">
        <ele>1443.25</ele>
        <time>2024-04-14T08:01:28Z</time>
      </trkpt>
      <trkpt lat="46.041726814582944" lon="8.822379726916552">
        <ele>1442.6199999999999</ele>
        <time>2024-04-14T08:02:23Z</time>
      </trkpt>
      <trkpt lat="46.041686497628689" lon="8.823036532849073">
        <ele>1444.3099999999999</ele>
        <time>2024-04-14T08:03:10Z</time>
      </trkpt>
      <trkpt lat="46.041614329442382" lon="8.823635000735521">
        <ele>1451.3900000000001</ele>
        <time>2024-04-14T08:05:50Z</time>
      </trkpt>
      <trkpt lat="46.041647689417005" lon="8.824298260733485">
        <ele>1457.4400000000001</ele>
        <time>2024-04-14T08:06:45Z</time>
      </trkpt>
      <trkpt lat="46.041646096855402" lon="8.824954479932785">
        <ele>1465.99</ele>
        <time>2024-04-14T08:07:51Z</time>
      </trkpt>
      <trkpt lat="46.041522631421685" lon="8.825629726052284">
        <ele>1475.5599999999999</ele>
        <time>2024-04-14T08:09:06Z</time>
      </trkpt>
      <trkpt lat="46.041463455185294" lon="8.825942622497678">
        <ele>1479.78</ele>
        <time>2024-04-14T08:10:39Z</time>
      </trkpt>
      <trkpt lat="46.041243262588978" lon="8.826589873060584">
        <ele>1492.24</ele>
        <time>2024-04-14T08:12:41Z</time>
      </trkpt>
      <trkpt lat="46.041169166564941" lon="8.827158249914646">
        <ele>1510.98</ele>
        <time>2024-04-14T08:15:07Z</time>
      </trkpt>
      <trkpt lat="46.04115734808147" lon="8.827695781365037">
        <ele>1528.02</ele>
        <time>2024-04-14T08:17:40Z</time>
      </trkpt>
      <trkpt lat="46.041093729436398" lon="8.828171035274863">
        <ele>1544.6099999999999</ele>
        <time>2024-04-14T08:19:37Z</time>
      </trkpt>
      <trkpt lat="46.04100882075727" lon="8.828604547306895">
        <ele>1559.76</ele>
        <time>2024-04-14T08:29:21Z</time>
      </trkpt>
      <trkpt lat="46.040771948173642" lon="8.829063037410379">
        <ele>1570.96</ele>
        <time>2024-04-14T08:31:12Z</time>
      </trkpt>
      <trkpt lat="46.040659546852112" lon="8.829686651006341">
        <ele>1582.02</ele>
        <time>2024-04-14T08:32:43Z</time>
      </trkpt>
      <trkpt lat="46.040514707565308" lon="8.830290483310819">
        <ele>1590.78</ele>
        <time>2024-04-14T08:34:34Z</time>
      </trkpt>
      <trkpt lat="46.04038487188518" lon="8.830899763852358">
        <ele>1596.6199999999999</ele>
        <time>2024-04-14T08:35:27Z</time>
      </trkpt>
      <trkpt lat="46.040283786132932" lon="8.831530250608921">
        <ele>1602.45</ele>
        <time>2024-04-14T08:36:24Z</time>
      </trkpt>
      <trkpt lat="46.040330640971661" lon="8.832135256379843">
        <ele>1609.71</ele>
        <time>2024-04-14T08:37:55Z</time>
      </trkpt>
      <trkpt lat="46.040422590449452" lon="8.832358885556459">
        <ele>1612.5699999999999</ele>
        <time>2024-04-14T08:40:31Z</time>
      </trkpt>
      <trkpt lat="46.040577404201031" lon="8.832675889134407">
        <ele>1614.8099999999999</ele>
        <time>2024-04-14T08:43:34Z</time>
      </trkpt>
      <trkpt lat="46.040369784459472" lon="8.832206083461642">
        <ele>1610.97</ele>
        <time>2024-04-14T08:46:40Z</time>
      </trkpt>
      <trkpt lat="46.040537673979998" lon="8.832589304074645">
        <ele>1618.28</ele>
        <time>2024-04-14T09:05:01Z</time>
      </trkpt>
      <trkpt lat="46.040824586525559" lon="8.833053912967444">
        <ele>1611.3099999999999</ele>
        <time>2024-04-14T09:06:34Z</time>
      </trkpt>
      <trkpt lat="46.04075719602406" lon="8.833428751677275">
        <ele>1595.0799999999999</ele>
        <time>2024-04-14T09:07:33Z</time>
      </trkpt>
      <trkpt lat="46.040537841618061" lon="8.833458004519343">
        <ele>1584.5799999999999</ele>
        <time>2024-04-14T09:08:22Z</time>
      </trkpt>
      <trkpt lat="46.040772534906864" lon="8.833996625617147">
        <ele>1574.3900000000001</ele>
        <time>2024-04-14T09:09:03Z</time>
      </trkpt>
      <trkpt lat="46.040927097201347" lon="8.834607917815447">
        <ele>1563.72</ele>
        <time>2024-04-14T09:09:49Z</time>
      </trkpt>
      <trkpt lat="46.040854845196009" lon="8.834791565313935">
        <ele>1560.6900000000001</ele>
        <time>2024-04-14T09:12:55Z</time>
      </trkpt>
      <trkpt lat="46.041251476854086" lon="8.834544382989407">
        <ele>1552.3900000000001</ele>
        <time>2024-04-14T09:14:31Z</time>
      </trkpt>
      <trkpt lat="46.041392376646399" lon="8.835113178938627">
        <ele>1541.6099999999999</ele>
        <time>2024-04-14T09:15:23Z</time>
      </trkpt>
      <trkpt lat="46.041753720492125" lon="8.835423896089196">
        <ele>1530.3699999999999</ele>
        <time>2024-04-14T09:16:25Z</time>
      </trkpt>
      <trkpt lat="46.042136689648032" lon="8.835760680958629">
        <ele>1518.8499999999999</ele>
        <time>2024-04-14T09:17:27Z</time>
      </trkpt>
      <trkpt lat="46.042538098990917" lon="8.836018843576312">
        <ele>1508.0699999999999</ele>
        <time>2024-04-14T09:18:39Z</time>
      </trkpt>
      <trkpt lat="46.042865915223956" lon="8.83644288405776">
        <ele>1499.5699999999999</ele>
        <time>2024-04-14T09:19:35Z</time>
      </trkpt>
      <trkpt lat="46.043185349553823" lon="8.836869355291128">
        <ele>1491.6400000000001</ele>
        <time>2024-04-14T09:20:36Z</time>
      </trkpt>
      <trkpt lat="46.043500006198883" lon="8.837263388559222">
        <ele>1486.71</ele>
        <time>2024-04-14T09:24:39Z</time>
      </trkpt>
      <trkpt lat="46.043813992291689" lon="8.837608136236668">
        <ele>1487.9300000000001</ele>
        <time>2024-04-14T09:30:03Z</time>
      </trkpt>
      <trkpt lat="46.04415069334209" lon="8.838034775108099">
        <ele>1489.3</ele>
        <time>2024-04-14T09:30:47Z</time>
      </trkpt>
      <trkpt lat="46.044439449906349" lon="8.838522015139461">
        <ele>1491.1700000000001</ele>
        <time>2024-04-14T09:31:36Z</time>
      </trkpt>
      <trkpt lat="46.044724937528372" lon="8.839028030633926">
        <ele>1497.99</ele>
        <time>2024-04-14T09:32:41Z</time>
      </trkpt>
      <trkpt lat="46.045057866722345" lon="8.83940152823925">
        <ele>1505.8299999999999</ele>
        <time>2024-04-14T09:33:49Z</time>
      </trkpt>
      <trkpt lat="46.045273197814822" lon="8.839949704706669">
        <ele>1513.1800000000001</ele>
        <time>2024-04-14T09:35:05Z</time>
      </trkpt>
      <trkpt lat="46.045536557212472" lon="8.840417331084609">
        <ele>1524.75</ele>
        <time>2024-04-14T09:36:39Z</time>
      </trkpt>
      <trkpt lat="46.045921118929982" lon="8.840614892542362">
        <ele>1532.8399999999999</ele>
        <time>2024-04-14T09:37:59Z</time>
      </trkpt>
      <trkpt lat="46.046163942664862" lon="8.841139264404774">
        <ele>1540.9100000000001</ele>
        <time>2024-04-14T09:39:08Z</time>
      </trkpt>
      <trkpt lat="46.046347757801414" lon="8.841705545783043">
        <ele>1551.6199999999999</ele>
        <time>2024-04-14T09:40:30Z</time>
      </trkpt>
      <trkpt lat="46.046560239046812" lon="8.842241736128926">
        <ele>1563.02</ele>
        <time>2024-04-14T09:41:56Z</time>
      </trkpt>
      <trkpt lat="46.04655965231359" lon="8.842874988913536">
        <ele>1572.6500000000001</ele>
        <time>2024-04-14T09:43:17Z</time>
      </trkpt>
      <trkpt lat="46.0468181502074" lon="8.842931902036071">
        <ele>1584.3</ele>
        <time>2024-04-14T09:44:49Z</time>
      </trkpt>
      <trkpt lat="46.047002635896206" lon="8.84236503392458">
        <ele>1593.1300000000001</ele>
        <time>2024-04-14T09:46:10Z</time>
      </trkpt>
      <trkpt lat="46.047262139618397" lon="8.842664016410708">
        <ele>1602.0999999999999</ele>
        <time>2024-04-14T09:47:30Z</time>
      </trkpt>
      <trkpt lat="46.047226851806045" lon="8.842501575127244">
        <ele>1602.6199999999999</ele>
        <time>2024-04-14T09:54:33Z</time>
      </trkpt>
      <trkpt lat="46.047315616160631" lon="8.841895898804069">
        <ele>1613.45</ele>
        <time>2024-04-14T09:56:12Z</time>
      </trkpt>
      <trkpt lat="46.047377977520227" lon="8.841310925781727">
        <ele>1623.1700000000001</ele>
        <time>2024-04-14T09:57:50Z</time>
      </trkpt>
      <trkpt lat="46.047441344708204" lon="8.840830978006125">
        <ele>1623.22</ele>
        <time>2024-04-14T10:02:09Z</time>
      </trkpt>
      <trkpt lat="46.047385102137923" lon="8.84018724784255">
        <ele>1620.6099999999999</ele>
        <time>2024-04-14T10:02:55Z</time>
      </trkpt>
      <trkpt lat="46.047071367502213" lon="8.839771589264274">
        <ele>1612.74</ele>
        <time>2024-04-14T10:07:21Z</time>
      </trkpt>
      <trkpt lat="46.046761237084866" lon="8.839314859360457">
        <ele>1601.8699999999999</ele>
        <time>2024-04-14T10:08:06Z</time>
      </trkpt>
      <trkpt lat="46.046529226005077" lon="8.838903391733766">
        <ele>1600.9400000000001</ele>
        <time>2024-04-14T10:09:16Z</time>
      </trkpt>
      <trkpt lat="46.04649712331593" lon="8.838805742561817">
        <ele>1603.47</ele>
        <time>2024-04-14T10:14:25Z</time>
      </trkpt>
      <trkpt lat="46.0461032576859" lon="8.838598961010575">
        <ele>1590.48</ele>
        <time>2024-04-14T10:17:26Z</time>
      </trkpt>
      <trkpt lat="46.045704027637839" lon="8.838413218036294">
        <ele>1579.6800000000001</ele>
        <time>2024-04-14T10:18:44Z</time>
      </trkpt>
      <trkpt lat="46.045295326039195" lon="8.838191851973534">
        <ele>1558.3399999999999</ele>
        <time>2024-04-14T10:20:35Z</time>
      </trkpt>
      <trkpt lat="46.044920990243554" lon="8.83784182369709">
        <ele>1541.1800000000001</ele>
        <time>2024-04-14T10:22:26Z</time>
      </trkpt>
      <trkpt lat="46.04452989064157" lon="8.837677203118801">
        <ele>1520.05</ele>
        <time>2024-04-14T10:24:26Z</time>
      </trkpt>
      <trkpt lat="46.044130995869637" lon="8.837476288899779">
        <ele>1503.0999999999999</ele>
        <time>2024-04-14T10:25:19Z</time>
      </trkpt>
      <trkpt lat="46.043819272890687" lon="8.837284846231341">
        <ele>1489.8399999999999</ele>
        <time>2024-04-14T10:27:19Z</time>
      </trkpt>
      <trkpt lat="46.043772585690022" lon="8.837340418249369">
        <ele>1488.03</ele>
        <time>2024-04-14T10:28:33Z</time>
      </trkpt>
      <trkpt lat="46.043791444972157" lon="8.836790816858411">
        <ele>1478.8299999999999</ele>
        <time>2024-04-14T10:36:19Z</time>
      </trkpt>
      <trkpt lat="46.044087326154113" lon="8.836354790255427">
        <ele>1469.23</ele>
        <time>2024-04-14T10:37:26Z</time>
      </trkpt>
      <trkpt lat="46.044412963092327" lon="8.835936030372977">
        <ele>1459.3900000000001</ele>
        <time>2024-04-14T10:38:20Z</time>
      </trkpt>
      <trkpt lat="46.04487338103354" lon="8.835741821676493">
        <ele>1450.1700000000001</ele>
        <time>2024-04-14T10:39:16Z</time>
      </trkpt>
      <trkpt lat="46.045340253040195" lon="8.835582314059138">
        <ele>1439.45</ele>
        <time>2024-04-14T10:40:09Z</time>
      </trkpt>
      <trkpt lat="46.045739399269223" lon="8.835272770375013">
        <ele>1433.3199999999999</ele>
        <time>2024-04-14T10:40:56Z</time>
      </trkpt>
      <trkpt lat="46.046196883544326" lon="8.834923077374697">
        <ele>1427.8399999999999</ele>
        <time>2024-04-14T10:41:46Z</time>
      </trkpt>
      <trkpt lat="46.046713963150978" lon="8.834710093215108">
        <ele>1418.4300000000001</ele>
        <time>2024-04-14T10:42:51Z</time>
      </trkpt>
      <trkpt lat="46.046995259821415" lon="8.834192007780075">
        <ele>1415.99</ele>
        <time>2024-04-14T10:43:36Z</time>
      </trkpt>
      <trkpt lat="46.047298097983003" lon="8.833758076652885">
        <ele>1417.51</ele>
        <time>2024-04-14T10:44:25Z</time>
      </trkpt>
      <trkpt lat="46.047401949763298" lon="8.833608292043209">
        <ele>1410.1400000000001</ele>
        <time>2024-04-14T10:56:52Z</time>
      </trkpt>
      <trkpt lat="46.047413852065802" lon="8.833620781078935">
        <ele>1408.6300000000001</ele>
        <time>2024-04-14T11:01:21Z</time>
      </trkpt>
      <trkpt lat="46.047460790723562" lon="8.833647351711988">
        <ele>1406.26</ele>
        <time>2024-04-14T11:07:36Z</time>
      </trkpt>
      <trkpt lat="46.047595990821719" lon="8.833794789388776">
        <ele>1406.96</ele>
        <time>2024-04-14T11:30:31Z</time>
      </trkpt>
      <trkpt lat="46.047897571697831" lon="8.834073152393103">
        <ele>1400.45</ele>
        <time>2024-04-14T11:33:11Z</time>
      </trkpt>
      <trkpt lat="46.04821415618062" lon="8.833692194893956">
        <ele>1397.47</ele>
        <time>2024-04-14T11:34:25Z</time>
      </trkpt>
      <trkpt lat="46.048761243000627" lon="8.833560263738036">
        <ele>1400.79</ele>
        <time>2024-04-14T11:35:30Z</time>
      </trkpt>
      <trkpt lat="46.049383012577891" lon="8.833622122183442">
        <ele>1399.53</ele>
        <time>2024-04-14T11:36:51Z</time>
      </trkpt>
      <trkpt lat="46.049886848777533" lon="8.834221260622144">
        <ele>1391.1900000000001</ele>
        <time>2024-04-14T11:38:07Z</time>
      </trkpt>
      <trkpt lat="46.050565950572491" lon="8.834508256986737">
        <ele>1384.0799999999999</ele>
        <time>2024-04-14T11:39:19Z</time>
      </trkpt>
      <trkpt lat="46.051224935799837" lon="8.834594255313277">
        <ele>1378.3499999999999</ele>
        <time>2024-04-14T11:40:33Z</time>
      </trkpt>
      <trkpt lat="46.051885848864913" lon="8.834327626973391">
        <ele>1372.6600000000001</ele>
        <time>2024-04-14T11:41:41Z</time>
      </trkpt>
      <trkpt lat="46.052395971491933" lon="8.834271552041173">
        <ele>1367.02</ele>
        <time>2024-04-14T11:43:00Z</time>
      </trkpt>
      <trkpt lat="46.052962671965361" lon="8.83417809382081">
        <ele>1367.3299999999999</ele>
        <time>2024-04-14T11:44:03Z</time>
      </trkpt>
      <trkpt lat="46.053518056869507" lon="8.83385949768126">
        <ele>1363.8599999999999</ele>
        <time>2024-04-14T11:45:26Z</time>
      </trkpt>
      <trkpt lat="46.053894320502877" lon="8.833368653431535">
        <ele>1351.3</ele>
        <time>2024-04-14T11:46:57Z</time>
      </trkpt>
      <trkpt lat="46.054188273847103" lon="8.832763396203518">
        <ele>1336.5699999999999</ele>
        <time>2024-04-14T11:48:30Z</time>
      </trkpt>
      <trkpt lat="46.05460393242538" lon="8.832084713503718">
        <ele>1327.1600000000001</ele>
        <time>2024-04-14T11:49:44Z</time>
      </trkpt>
      <trkpt lat="46.05503199622035" lon="8.831419693306088">
        <ele>1325.5899999999999</ele>
        <time>2024-04-14T11:50:54Z</time>
      </trkpt>
      <trkpt lat="46.055124951526523" lon="8.830912671983242">
        <ele>1323.54</ele>
        <time>2024-04-14T11:52:06Z</time>
      </trkpt>
      <trkpt lat="46.055093267932534" lon="8.830123348161578">
        <ele>1317.5</ele>
        <time>2024-04-14T11:52:55Z</time>
      </trkpt>
      <trkpt lat="46.05516392737627" lon="8.829280212521553">
        <ele>1314.51</ele>
        <time>2024-04-14T11:53:43Z</time>
      </trkpt>
      <trkpt lat="46.055170129984617" lon="8.828614857047796">
        <ele>1310.71</ele>
        <time>2024-04-14T11:54:29Z</time>
      </trkpt>
      <trkpt lat="46.055280854925513" lon="8.827982023358345">
        <ele>1308.7</ele>
        <time>2024-04-14T11:55:15Z</time>
      </trkpt>
      <trkpt lat="46.055531054735184" lon="8.827336030080915">
        <ele>1301.96</ele>
        <time>2024-04-14T11:56:15Z</time>
      </trkpt>
      <trkpt lat="46.055648904293776" lon="8.826637482270598">
        <ele>1293.01</ele>
        <time>2024-04-14T11:57:11Z</time>
      </trkpt>
      <trkpt lat="46.055632475763559" lon="8.825981095433235">
        <ele>1280.8800000000001</ele>
        <time>2024-04-14T11:58:06Z</time>
      </trkpt>
      <trkpt lat="46.05558268725872" lon="8.825300484895706">
        <ele>1270.6600000000001</ele>
        <time>2024-04-14T11:59:08Z</time>
      </trkpt>
      <trkpt lat="46.055580843240023" lon="8.824623394757509">
        <ele>1257.54</ele>
        <time>2024-04-14T12:00:30Z</time>
      </trkpt>
      <trkpt lat="46.055564498528838" lon="8.824270348995924">
        <ele>1248.1700000000001</ele>
        <time>2024-04-14T12:02:29Z</time>
      </trkpt>
      <trkpt lat="46.055499203503132" lon="8.823937335982919">
        <ele>1245.97</ele>
        <time>2024-04-14T12:07:17Z</time>
      </trkpt>
      <trkpt lat="46.055518817156553" lon="8.824183009564877">
        <ele>1248.6800000000001</ele>
        <time>2024-04-14T12:17:10Z</time>
      </trkpt>
      <trkpt lat="46.05560858733952" lon="8.824192732572556">
        <ele>1247.6900000000001</ele>
        <time>2024-04-14T12:19:32Z</time>
      </trkpt>
      <trkpt lat="46.055704476311803" lon="8.824487691745162">
        <ele>1252.71</ele>
        <time>2024-04-14T12:22:27Z</time>
      </trkpt>
      <trkpt lat="46.05573071166873" lon="8.824470844119787">
        <ele>1253.6500000000001</ele>
        <time>2024-04-14T12:25:00Z</time>
      </trkpt>
      <trkpt lat="46.055703973397613" lon="8.824359280988574">
        <ele>1253.8800000000001</ele>
        <time>2024-04-14T12:29:54Z</time>
      </trkpt>
      <trkpt lat="46.055378168821335" lon="8.824916677549481">
        <ele>1253.97</ele>
        <time>2024-04-14T12:31:27Z</time>
      </trkpt>
      <trkpt lat="46.055254871025681" lon="8.825551103800535">
        <ele>1255.05</ele>
        <time>2024-04-14T12:32:12Z</time>
      </trkpt>
      <trkpt lat="46.055138865485787" lon="8.826210256665945">
        <ele>1259.3199999999999</ele>
        <time>2024-04-14T12:33:13Z</time>
      </trkpt>
      <trkpt lat="46.05515998788178" lon="8.826625244691968">
        <ele>1268.3699999999999</ele>
        <time>2024-04-14T12:35:02Z</time>
      </trkpt>
      <trkpt lat="46.054624384269118" lon="8.826673775911331">
        <ele>1267.4200000000001</ele>
        <time>2024-04-14T12:36:19Z</time>
      </trkpt>
      <trkpt lat="46.05446026660502" lon="8.827420687302947">
        <ele>1267.27</ele>
        <time>2024-04-14T12:37:02Z</time>
      </trkpt>
      <trkpt lat="46.054303273558617" lon="8.828058214858174">
        <ele>1268.4300000000001</ele>
        <time>2024-04-14T12:37:43Z</time>
      </trkpt>
      <trkpt lat="46.054085930809379" lon="8.828577641397715">
        <ele>1270.8499999999999</ele>
        <time>2024-04-14T12:39:24Z</time>
      </trkpt>
      <trkpt lat="46.053803712129593" lon="8.829147024080157">
        <ele>1273.9300000000001</ele>
        <time>2024-04-14T12:40:25Z</time>
      </trkpt>
      <trkpt lat="46.053923154249787" lon="8.829828053712845">
        <ele>1277.77</ele>
        <time>2024-04-14T12:41:37Z</time>
      </trkpt>
      <trkpt lat="46.053933296352625" lon="8.830646546557546">
        <ele>1278.24</ele>
        <time>2024-04-14T12:42:33Z</time>
      </trkpt>
      <trkpt lat="46.053560134023428" lon="8.831310560926795">
        <ele>1278.6400000000001</ele>
        <time>2024-04-14T12:43:33Z</time>
      </trkpt>
      <trkpt lat="46.053096698597074" lon="8.831945238634944">
        <ele>1276.8099999999999</ele>
        <time>2024-04-14T12:44:33Z</time>
      </trkpt>
      <trkpt lat="46.052584312856197" lon="8.832175573334098">
        <ele>1277.21</ele>
        <time>2024-04-14T12:45:42Z</time>
      </trkpt>
      <trkpt lat="46.052108975127339" lon="8.832121174782515">
        <ele>1285.23</ele>
        <time>2024-04-14T12:47:05Z</time>
      </trkpt>
      <trkpt lat="46.051594661548734" lon="8.832335500046611">
        <ele>1291.8</ele>
        <time>2024-04-14T12:48:28Z</time>
      </trkpt>
      <trkpt lat="46.051065931096673" lon="8.832363076508045">
        <ele>1297.45</ele>
        <time>2024-04-14T12:49:42Z</time>
      </trkpt>
      <trkpt lat="46.051113540306687" lon="8.832417307421565">
        <ele>1299.49</ele>
        <time>2024-04-14T12:52:25Z</time>
      </trkpt>
      <trkpt lat="46.051086634397507" lon="8.832360478118062">
        <ele>1301.5999999999999</ele>
        <time>2024-04-14T12:54:46Z</time>
      </trkpt>
      <trkpt lat="46.050713891163468" lon="8.832242880016565">
        <ele>1305.9400000000001</ele>
        <time>2024-04-14T12:56:23Z</time>
      </trkpt>
      <trkpt lat="46.050421195104718" lon="8.831532346084714">
        <ele>1304.3900000000001</ele>
        <time>2024-04-14T12:57:16Z</time>
      </trkpt>
      <trkpt lat="46.049926746636629" lon="8.831243170425296">
        <ele>1298.3800000000001</ele>
        <time>2024-04-14T12:58:13Z</time>
      </trkpt>
      <trkpt lat="46.049418970942497" lon="8.831457830965519">
        <ele>1293.54</ele>
        <time>2024-04-14T12:59:11Z</time>
      </trkpt>
      <trkpt lat="46.048888228833675" lon="8.831267980858684">
        <ele>1296.03</ele>
        <time>2024-04-14T13:00:15Z</time>
      </trkpt>
      <trkpt lat="46.048363773152232" lon="8.83109338581562">
        <ele>1301.22</ele>
        <time>2024-04-14T13:01:14Z</time>
      </trkpt>
      <trkpt lat="46.048017097637057" lon="8.830655682832003">
        <ele>1300.8699999999999</ele>
        <time>2024-04-14T13:02:06Z</time>
      </trkpt>
      <trkpt lat="46.047968063503504" lon="8.829786814749241">
        <ele>1292.6700000000001</ele>
        <time>2024-04-14T13:03:03Z</time>
      </trkpt>
      <trkpt lat="46.047866558656096" lon="8.829027833417058">
        <ele>1284.26</ele>
        <time>2024-04-14T13:04:00Z</time>
      </trkpt>
      <trkpt lat="46.04775432497263" lon="8.828244376927614">
        <ele>1276.04</ele>
        <time>2024-04-14T13:04:54Z</time>
      </trkpt>
      <trkpt lat="46.047546705231071" lon="8.827606597915292">
        <ele>1262.4300000000001</ele>
        <time>2024-04-14T13:06:14Z</time>
      </trkpt>
      <trkpt lat="46.047042198479176" lon="8.82771891541779">
        <ele>1251.8199999999999</ele>
        <time>2024-04-14T13:07:10Z</time>
      </trkpt>
      <trkpt lat="46.04673508554697" lon="8.828279748558998">
        <ele>1244.02</ele>
        <time>2024-04-14T13:08:00Z</time>
      </trkpt>
      <trkpt lat="46.046457476913929" lon="8.82820607163012">
        <ele>1240.5899999999999</ele>
        <time>2024-04-14T13:09:44Z</time>
      </trkpt>
      <trkpt lat="46.046413974836469" lon="8.827428566291928">
        <ele>1239.95</ele>
        <time>2024-04-14T13:10:38Z</time>
      </trkpt>
      <trkpt lat="46.04632462374866" lon="8.82671719416976">
        <ele>1237.73</ele>
        <time>2024-04-14T13:11:29Z</time>
      </trkpt>
      <trkpt lat="46.046355636790395" lon="8.826387785375118">
        <ele>1234.54</ele>
        <time>2024-04-14T13:13:08Z</time>
      </trkpt>
      <trkpt lat="46.046166121959686" lon="8.825806751847267">
        <ele>1226.55</ele>
        <time>2024-04-14T13:14:16Z</time>
      </trkpt>
      <trkpt lat="46.045929584652185" lon="8.825000915676355">
        <ele>1216.23</ele>
        <time>2024-04-14T13:15:24Z</time>
      </trkpt>
      <trkpt lat="46.045592715963721" lon="8.824532702565193">
        <ele>1203.45</ele>
        <time>2024-04-14T13:16:37Z</time>
      </trkpt>
      <trkpt lat="46.045590536668897" lon="8.823875561356545">
        <ele>1207.03</ele>
        <time>2024-04-14T13:17:38Z</time>
      </trkpt>
      <trkpt lat="46.04525500908494" lon="8.82336619310081">
        <ele>1209.1700000000001</ele>
        <time>2024-04-14T13:18:30Z</time>
      </trkpt>
      <trkpt lat="46.045369589701295" lon="8.822627998888493">
        <ele>1208.1700000000001</ele>
        <time>2024-04-14T13:19:40Z</time>
      </trkpt>
      <trkpt lat="46.04539037682116" lon="8.821968846023083">
        <ele>1201.25</ele>
        <time>2024-04-14T13:20:34Z</time>
      </trkpt>
      <trkpt lat="46.045626495033503" lon="8.821322014555335">
        <ele>1202.8499999999999</ele>
        <time>2024-04-14T13:21:26Z</time>
      </trkpt>
      <trkpt lat="46.045766975730658" lon="8.820731341838837">
        <ele>1196.8599999999999</ele>
        <time>2024-04-14T13:22:14Z</time>
      </trkpt>
      <trkpt lat="46.045852638781071" lon="8.820020807906985">
        <ele>1194.9100000000001</ele>
        <time>2024-04-14T13:23:14Z</time>
      </trkpt>
      <trkpt lat="46.04609596543014" lon="8.819324607029557">
        <ele>1190.1400000000001</ele>
        <time>2024-04-14T13:24:04Z</time>
      </trkpt>
      <trkpt lat="46.0464399587363" lon="8.818795625120401">
        <ele>1191.3499999999999</ele>
        <time>2024-04-14T13:24:55Z</time>
      </trkpt>
      <trkpt lat="46.046676579862833" lon="8.818097664043307">
        <ele>1195.9100000000001</ele>
        <time>2024-04-14T13:25:48Z</time>
      </trkpt>
      <trkpt lat="46.046830639243126" lon="8.817408420145512">
        <ele>1196.6300000000001</ele>
        <time>2024-04-14T13:26:42Z</time>
      </trkpt>
      <trkpt lat="46.046823849901557" lon="8.816668884828687">
        <ele>1194.6300000000001</ele>
        <time>2024-04-14T13:27:25Z</time>
      </trkpt>
      <trkpt lat="46.046734750270844" lon="8.815937228500843">
        <ele>1195.29</ele>
        <time>2024-04-14T13:28:27Z</time>
      </trkpt>
      <trkpt lat="46.046251030638814" lon="8.815739750862122">
        <ele>1199.95</ele>
        <time>2024-04-14T13:29:24Z</time>
      </trkpt>
      <trkpt lat="46.045742752030492" lon="8.815745953470469">
        <ele>1201.05</ele>
        <time>2024-04-14T13:30:27Z</time>
      </trkpt>
      <trkpt lat="46.045254338532686" lon="8.815370192751288">
        <ele>1206.25</ele>
        <time>2024-04-14T13:31:35Z</time>
      </trkpt>
      <trkpt lat="46.044831555336714" lon="8.814947493374348">
        <ele>1207.76</ele>
        <time>2024-04-14T13:32:23Z</time>
      </trkpt>
      <trkpt lat="46.04451228864491" lon="8.8143006619066">
        <ele>1205.8699999999999</ele>
        <time>2024-04-14T13:33:10Z</time>
      </trkpt>
      <trkpt lat="46.044229902327061" lon="8.81361803971231">
        <ele>1204.6900000000001</ele>
        <time>2024-04-14T13:33:55Z</time>
      </trkpt>
      <trkpt lat="46.04403980076313" lon="8.812858304008842">
        <ele>1202.3499999999999</ele>
        <time>2024-04-14T13:34:39Z</time>
      </trkpt>
      <trkpt lat="46.043926309794188" lon="8.812059760093689">
        <ele>1202.9100000000001</ele>
        <time>2024-04-14T13:35:27Z</time>
      </trkpt>
      <trkpt lat="46.043763030320406" lon="8.811258114874363">
        <ele>1198.46</ele>
        <time>2024-04-14T13:36:18Z</time>
      </trkpt>
      <trkpt lat="46.043305294588208" lon="8.811119142919779">
        <ele>1197.05</ele>
        <time>2024-04-14T13:37:13Z</time>
      </trkpt>
    </trkseg>
  </trk>

</gpx>